Detall de PIREP

Printer-friendly versionPDF version

[2016/12/05 14:59:00]
Flight IATA:CT2108
Pilot Number:012
Company ICAO:CAT
Aircraft Type:DC85/A
PAX:0
Aircraft Registration:CARGO
Departing Airport: LEVC
Destination Airport: LEMG
Alternate Airport:LXGB
Online: VATSIM
Route:ASTRO B28 VIBAS
Flight Level:F230
No Slew and time accel
No pause
Crash detect
Detect pilot in Cockpit between each 30 and 45 minutes
14:59 Zero fuel Weight: 187231 Lbs, Fuel Weight: 26144 Lbs
14:59 VATSIM:LEVC 051430Z 04011KT 010V070 9999 FEW014 BKN022 FEW025TCU 17/14 Q1018 NOSIG
14:59 VATSIM:LEMG 051430Z 13003KT 080V150 9999 SCT020 SCT030 17/13 Q1015 NOSIG
15:03 Parking Brakes off
15:08 Take-off
15:08 Take off Weight: 212526 Lbs
15:08 Wind: 038º @ 011 Knots Heading: 112º
15:08 POS N39º 29´ 25´´ W000º 29´ 03´´
15:08 Flaps:2 at 168 Knots
15:08 Gear Up: 170 Knots
15:08 Flaps:1 at 196 Knots
15:08 Flaps:0 at 201 Knots
15:16 TOC
15:16 Fuel Weight: 22220 Lb
15:23 Wind:090º@004 Knots Heading: 231º Ground Speed: 419 Knots Altitude 23152 ft
15:38 Wind:345º@018 Knots Heading: 228º Ground Speed: 424 Knots Altitude 23061 ft
15:39 TOD
15:39 Fuel Weight: 17529 Lb
15:48 Flaps:1 at 237 Knots
15:53 Wind:133º@009 Knots Heading: 261º Ground Speed: 253 Knots Altitude 7050 ft
15:54 Flaps:2 at 227 Knots
15:55 Flaps:3 at 205 Knots
15:55 Gear Down: 214 Knots
15:56 Flaps:4 at 154 Knots
15:58 Flaps:5 at 175 Knots
16:03 TouchDown:Rate -464 ft/min Speed: 142 Knots
16:04 VATSIM:LEMG 051530Z 09004KT 050V120 9999 FEW017 SCT020 17/13 Q1016 NOSIG
16:04 Land
16:04 Wind:119º@003 Knots
16:04 Heading: 132º
16:04 Flight Duration: 00:56
16:04 Landing Weight: 201046 Lbs
16:04 POS N36º 40´ 31´´ W004º 29´ 59´´
16:07 Parking brakes on
16:07 Block to Block Duration: 01:04
16:07 Final Fuel: 13483 Lbls
16:07 Spent Fuel: 12660 Lbls
16:07 Flight Length: 308 NM
16:07 TOD Land Length: 103 NM

Exportar CSV

Powered by Drupal - Modified by Danger4k